createdAt,value
2022-12-18T00:01:41.169Z,95198.31
2022-12-18T00:04:15.912Z,95196.25
2022-12-18T00:06:42.506Z,95197.69
2022-12-18T00:09:11.111Z,95198.31
2022-12-18T00:11:37.729Z,95188.19
2022-12-18T00:14:04.192Z,95181.69
2022-12-18T00:16:33.758Z,95188.19
2022-12-18T00:19:00.900Z,95186.59
2022-12-18T00:21:31.355Z,95195.47
2022-12-18T00:23:59.083Z,95193.41
2022-12-18T00:26:29.892Z,95192.28
2022-12-18T00:29:01.326Z,95190.56
2022-12-18T00:31:31.086Z,95192.91
2022-12-18T00:33:58.404Z,95199.88
2022-12-18T00:36:28.174Z,95194.50
2022-12-18T00:38:55.941Z,95210.31
2022-12-18T00:41:41.620Z,95213.16
2022-12-18T00:44:10.853Z,95203.19
2022-12-18T00:46:37.310Z,95197.03
2022-12-18T00:49:04.312Z,95207.63
2022-12-18T00:51:31.326Z,95217.56
2022-12-18T00:53:57.881Z,95213.47
2022-12-18T00:56:25.255Z,95220.75
2022-12-18T00:58:53.080Z,95211.59
2022-12-18T01:01:19.614Z,95217.91
2022-12-18T01:03:47.516Z,95225.50
2022-12-18T01:06:15.660Z,95229.13
2022-12-18T01:08:42.948Z,95224.25
2022-12-18T01:11:15.681Z,95228.69
2022-12-18T01:13:42.312Z,95224.56
2022-12-18T01:16:09.977Z,95226.63
2022-12-18T01:18:36.592Z,95217.91
2022-12-18T01:21:17.978Z,95220.75
2022-12-18T01:23:44.340Z,95218.53
2022-12-18T01:26:16.648Z,95223.44
2022-12-18T01:28:44.759Z,95221.22
2022-12-18T01:31:31.660Z,95228.63
2022-12-18T01:34:01.145Z,95230.88
2022-12-18T01:36:30.236Z,95225.81
2022-12-18T01:38:57.916Z,95235.47
2022-12-18T01:41:51.078Z,95231.81
2022-12-18T01:44:55.407Z,95241.75
2022-12-18T01:47:41.343Z,95241.91
2022-12-18T01:50:26.256Z,95252.19
2022-12-18T01:52:56.405Z,95249.66
2022-12-18T01:55:25.542Z,95252.34
2022-12-18T01:57:58.629Z,95250.28
2022-12-18T02:00:26.445Z,95243.03
2022-12-18T02:02:55.440Z,95251.75
2022-12-18T02:05:38.606Z,95246.34
2022-12-18T02:08:31.746Z,95241.94
2022-12-18T02:10:58.501Z,95237.22
2022-12-18T02:13:27.928Z,95242.41
2022-12-18T02:16:06.975Z,95231.81
2022-12-18T02:18:36.731Z,95244.81
2022-12-18T02:21:28.590Z,95238.47
2022-12-18T02:24:13.508Z,95227.22
2022-12-18T02:26:48.416Z,95228.84
2022-12-18T02:29:28.405Z,95225.06
2022-12-18T02:31:58.701Z,95229.16
2022-12-18T02:34:31.290Z,95224.25
2022-12-18T02:37:00.936Z,95231.69
2022-12-18T02:39:30.307Z,95241.97
2022-12-18T02:42:08.532Z,95244.50
2022-12-18T02:44:40.165Z,95248.28
2022-12-18T02:47:12.819Z,95250.19
2022-12-18T02:50:04.965Z,95240.84
2022-12-18T02:52:45.001Z,95236.28
2022-12-18T02:55:46.080Z,95237.22
2022-12-18T02:58:21.525Z,95242.59
2022-12-18T03:01:04.666Z,95230.88
2022-12-18T03:03:39.993Z,95244.19
2022-12-18T03:06:28.141Z,95242.91
2022-12-18T03:09:07.100Z,95248.31
2022-12-18T03:11:56.892Z,95248.97
2022-12-18T03:14:26.349Z,95246.44
2022-12-18T03:16:58.945Z,95252.44
2022-12-18T03:19:29.086Z,95252.13
2022-12-18T03:22:01.772Z,95245.16
2022-12-18T03:24:38.276Z,95249.09
2022-12-18T03:27:10.099Z,95254.66
2022-12-18T03:29:43.468Z,95259.72
2022-12-18T03:32:20.050Z,95250.88
2022-12-18T03:34:49.993Z,95253.41
2022-12-18T03:37:17.799Z,95246.56
2022-12-18T03:39:44.526Z,95248.97
2022-12-18T03:42:23.317Z,95250.53
2022-12-18T03:45:07.258Z,95243.09
2022-12-18T03:47:50.648Z,95244.22
2022-12-18T03:50:30.681Z,95246.13
2022-12-18T03:53:06.322Z,95242.63
2022-12-18T03:55:35.490Z,95243.59
2022-12-18T03:58:08.341Z,95249.59
2022-12-18T04:00:50.701Z,95252.75
2022-12-18T04:03:22.701Z,95240.09
2022-12-18T04:05:56.347Z,95246.25
2022-12-18T04:08:24.496Z,95254.50
2022-12-18T04:11:00.554Z,95264.66
2022-12-18T04:13:34.999Z,95251.63
2022-12-18T04:16:03.932Z,95260.03
2022-12-18T04:18:30.993Z,95253.09
2022-12-18T04:20:57.530Z,95263.22
2022-12-18T04:23:25.088Z,95261.63
2022-12-18T04:25:53.857Z,95258.16
2022-12-18T04:28:33.576Z,95243.59
2022-12-18T04:31:00.377Z,95253.09
2022-12-18T04:33:27.997Z,95250.38
2022-12-18T04:35:54.631Z,95266.38
2022-12-18T04:38:21.118Z,95269.72
2022-12-18T04:40:54.133Z,95267.94
2022-12-18T04:43:26.018Z,95264.97
2022-12-18T04:45:52.481Z,95266.69
2022-12-18T04:48:18.979Z,95269.06
2022-12-18T04:50:45.387Z,95264.16
2022-12-18T04:53:11.822Z,95269.84
2022-12-18T04:55:38.225Z,95258.47
2022-12-18T04:58:05.270Z,95256.88
2022-12-18T05:00:31.710Z,95273.31
2022-12-18T05:02:58.232Z,95287.59
2022-12-18T05:05:24.817Z,95288.53
2022-12-18T05:07:51.204Z,95282.53
2022-12-18T05:10:17.686Z,95284.13
2022-12-18T05:13:04.402Z,95275.22
2022-12-18T05:15:32.326Z,95279.19
2022-12-18T05:17:59.861Z,95280.00
2022-12-18T05:20:27.472Z,95276.50
2022-12-18T05:22:54.257Z,95275.22
2022-12-18T05:25:21.514Z,95283.50
2022-12-18T05:27:48.407Z,95288.38
2022-12-18T05:30:15.326Z,95280.78
2022-12-18T05:32:41.981Z,95289.31
2022-12-18T05:35:10.532Z,95290.13
2022-12-18T05:37:42.517Z,95298.69
2022-12-18T05:40:10.319Z,95300.44
2022-12-18T05:42:36.736Z,95297.59
2022-12-18T05:45:03.594Z,95282.84
2022-12-18T05:47:30.099Z,95291.09
2022-12-18T05:49:56.641Z,95297.25
2022-12-18T05:52:23.738Z,95283.50
2022-12-18T05:54:50.212Z,95276.66
2022-12-18T05:57:16.655Z,95278.41
2022-12-18T05:59:43.077Z,95277.94
2022-12-18T06:02:09.611Z,95283.94
2022-12-18T06:04:36.173Z,95287.28
2022-12-18T06:07:03.898Z,95285.69
2022-12-18T06:09:30.544Z,95289.81
2022-12-18T06:11:56.990Z,95292.50
2022-12-18T06:14:23.422Z,95293.44
2022-12-18T06:16:52.868Z,95295.81
2022-12-18T06:19:19.299Z,95298.34
2022-12-18T06:21:45.746Z,95302.47
2022-12-18T06:24:12.211Z,95302.47
2022-12-18T06:26:39.902Z,95296.78
2022-12-18T06:29:07.095Z,95306.75
2022-12-18T06:31:33.735Z,95310.06
2022-12-18T06:34:02.653Z,95306.44
2022-12-18T06:36:30.654Z,95307.22
2022-12-18T06:38:58.488Z,95313.22
2022-12-18T06:41:25.175Z,95311.97
2022-12-18T06:43:55.586Z,95314.34
2022-12-18T06:46:24.679Z,95318.00
2022-12-18T06:48:51.647Z,95307.84
2022-12-18T06:51:20.105Z,95300.25
2022-12-18T06:53:46.808Z,95310.06
2022-12-18T06:56:13.482Z,95318.31
2022-12-18T06:58:40.610Z,95322.91
2022-12-18T07:01:09.846Z,95318.16
2022-12-18T07:03:37.208Z,95317.69
2022-12-18T07:06:04.593Z,95316.88
2022-12-18T07:08:32.458Z,95328.31
2022-12-18T07:10:59.056Z,95327.19
2022-12-18T07:13:25.813Z,95330.22
2022-12-18T07:15:52.236Z,95325.28
2022-12-18T07:18:18.641Z,95340.66
2022-12-18T07:20:45.138Z,95333.84
2022-12-18T07:23:12.448Z,95340.94
2022-12-18T07:25:38.952Z,95346.00
2022-12-18T07:28:05.582Z,95353.31
2022-12-18T07:30:32.251Z,95363.59
2022-12-18T07:32:58.646Z,95364.06
2022-12-18T07:35:25.612Z,95363.28
2022-12-18T07:37:52.295Z,95369.13
2022-12-18T07:40:19.053Z,95372.16
2022-12-18T07:42:45.476Z,95381.03
2022-12-18T07:45:11.915Z,95373.88
2022-12-18T07:47:38.654Z,95381.34
2022-12-18T07:50:07.028Z,95390.69
2022-12-18T07:52:33.553Z,95388.00
2022-12-18T07:55:00.567Z,95377.22
2022-12-18T07:57:49.377Z,95378.50
2022-12-18T08:00:14.137Z,95382.44
2022-12-18T08:02:40.755Z,95380.84
2022-12-18T08:05:09.289Z,95382.59
2022-12-18T08:07:35.718Z,95387.22
2022-12-18T08:10:02.148Z,95388.94
2022-12-18T08:12:28.592Z,95392.59
2022-12-18T08:14:55.005Z,95389.09
2022-12-18T08:17:21.506Z,95380.03
2022-12-18T08:19:47.903Z,95384.81
2022-12-18T08:22:14.342Z,95382.44
2022-12-18T08:24:40.801Z,95385.28
2022-12-18T08:27:28.349Z,95382.44
2022-12-18T08:29:53.631Z,95379.09
2022-12-18T08:32:20.204Z,95384.47
2022-12-18T08:34:46.693Z,95371.97
2022-12-18T08:37:13.358Z,95382.91
2022-12-18T08:39:39.774Z,95374.63
2022-12-18T08:42:24.949Z,95370.34
2022-12-18T08:44:51.370Z,95369.72
2022-12-18T08:47:17.792Z,95373.19
2022-12-18T08:49:44.270Z,95368.25
2022-12-18T08:52:10.718Z,95372.38
2022-12-18T08:54:37.126Z,95385.38
2022-12-18T08:57:03.643Z,95382.19
2022-12-18T08:59:30.129Z,95385.38
2022-12-18T09:01:56.717Z,95384.41
2022-12-18T09:04:23.509Z,95386.63
2022-12-18T09:06:50.403Z,95386.63
2022-12-18T09:09:16.826Z,95375.53
2022-12-18T09:11:43.506Z,95381.41
2022-12-18T09:14:10.506Z,95378.06
2022-12-18T09:16:37.166Z,95370.28
2022-12-18T09:19:05.312Z,95377.41
2022-12-18T09:21:36.737Z,95373.91
2022-12-18T09:24:05.236Z,95367.59
2022-12-18T09:26:35.448Z,95380.25
2022-12-18T09:29:03.503Z,95374.84
2022-12-18T09:31:29.929Z,95376.09
2022-12-18T09:33:57.642Z,95371.47
2022-12-18T09:36:24.314Z,95364.94
2022-12-18T09:38:50.788Z,95369.69
2022-12-18T09:41:41.344Z,95365.09
2022-12-18T09:44:33.743Z,95359.78
2022-12-18T09:47:15.521Z,95363.75
2022-12-18T09:49:45.474Z,95362.28
2022-12-18T09:52:19.094Z,95370.09
2022-12-18T09:54:52.944Z,95367.22
2022-12-18T09:57:24.039Z,95370.34
2022-12-18T10:00:03.819Z,95370.75
2022-12-18T10:02:38.334Z,95357.38
2022-12-18T10:05:12.928Z,95369.44
2022-12-18T10:07:58.847Z,95370.41
2022-12-18T10:10:38.501Z,95367.53
2022-12-18T10:13:27.762Z,95367.31
2022-12-18T10:16:12.825Z,95371.38
2022-12-18T10:19:18.270Z,95349.13
2022-12-18T10:22:23.529Z,95340.88
2022-12-18T10:25:46.416Z,95334.53
2022-12-18T10:28:18.178Z,95345.50
2022-12-18T10:30:45.260Z,95341.22
2022-12-18T10:33:16.887Z,95351.19
2022-12-18T10:35:44.192Z,95343.50
2022-12-18T10:38:13.420Z,95349.78
2022-12-18T10:41:04.989Z,95349.44
2022-12-18T10:43:36.821Z,95346.91
2022-12-18T10:46:09.329Z,95341.28
2022-12-18T10:48:49.329Z,95345.25
2022-12-18T10:51:25.430Z,95347.28
2022-12-18T10:53:56.086Z,95348.06
2022-12-18T10:56:24.720Z,95351.66
2022-12-18T10:59:02.739Z,95350.84
2022-12-18T11:01:46.053Z,95357.75
2022-12-18T11:04:18.478Z,95357.41
2022-12-18T11:07:04.156Z,95365.50
2022-12-18T11:09:40.934Z,95360.53
2022-12-18T11:12:19.481Z,95375.59
2022-12-18T11:14:50.372Z,95364.19
2022-12-18T11:17:26.153Z,95360.25
2022-12-18T11:19:55.237Z,95368.38
2022-12-18T11:22:27.235Z,95363.22
2022-12-18T11:25:33.316Z,95373.09
2022-12-18T11:28:25.600Z,95356.53
2022-12-18T11:31:10.409Z,95355.28
2022-12-18T11:33:49.387Z,95346.25
2022-12-18T11:36:26.677Z,95347.84
2022-12-18T11:38:56.473Z,95349.50
2022-12-18T11:41:50.512Z,95347.69
2022-12-18T11:44:25.986Z,95344.78
2022-12-18T11:47:10.238Z,95330.31
2022-12-18T11:49:37.107Z,95325.84
2022-12-18T11:52:25.136Z,95330.03
2022-12-18T11:54:54.004Z,95333.72
2022-12-18T11:57:40.313Z,95335.47
2022-12-18T12:00:22.864Z,95336.34
2022-12-18T12:03:07.600Z,95328.63
2022-12-18T12:05:46.110Z,95315.31
2022-12-18T12:08:33.614Z,95326.63
2022-12-18T12:11:23.617Z,95321.09
2022-12-18T12:14:05.323Z,95312.84
2022-12-18T12:16:59.999Z,95303.00
2022-12-18T12:19:37.882Z,95299.22
2022-12-18T12:22:29.174Z,95297.13
2022-12-18T12:25:10.535Z,95296.66
2022-12-18T12:27:44.565Z,95301.00
2022-12-18T12:30:27.118Z,95293.00
2022-12-18T12:33:07.216Z,95287.53
2022-12-18T12:35:57.858Z,95282.19
2022-12-18T12:38:29.132Z,95282.13
2022-12-18T12:41:30.002Z,95283.75
2022-12-18T12:44:00.843Z,95288.84
2022-12-18T12:46:28.758Z,95291.94
2022-12-18T12:49:05.198Z,95287.00
2022-12-18T12:51:44.409Z,95280.34
2022-12-18T12:54:22.385Z,95285.44
2022-12-18T12:57:00.956Z,95286.22
2022-12-18T12:59:59.169Z,95285.78
2022-12-18T13:02:56.039Z,95295.94
2022-12-18T13:05:34.724Z,95293.22
2022-12-18T13:08:08.339Z,95296.81
2022-12-18T13:10:40.728Z,95297.38
2022-12-18T13:13:11.093Z,95291.94
2022-12-18T13:16:06.118Z,95294.50
2022-12-18T13:18:34.246Z,95293.84
2022-12-18T13:21:03.351Z,95286.75
2022-12-18T13:23:43.328Z,95289.84
2022-12-18T13:26:23.375Z,95298.94
2022-12-18T13:28:55.451Z,95298.94
2022-12-18T13:31:30.751Z,95294.34
2022-12-18T13:34:27.420Z,95299.97
2022-12-18T13:36:56.649Z,95303.66
2022-12-18T13:39:32.780Z,95297.97
2022-12-18T13:42:07.146Z,95297.31
2022-12-18T13:44:41.586Z,95296.09
2022-12-18T13:47:32.515Z,95304.06
2022-12-18T13:49:59.602Z,95296.97
2022-12-18T13:52:29.486Z,95297.47
2022-12-18T13:54:58.810Z,95292.44
2022-12-18T13:57:39.440Z,95291.38
2022-12-18T14:00:29.504Z,95288.31
2022-12-18T14:02:57.487Z,95284.00
2022-12-18T14:05:26.231Z,95285.16
2022-12-18T14:07:53.777Z,95276.63
2022-12-18T14:13:11.346Z,95286.81
2022-12-18T14:15:44.443Z,95280.31
2022-12-18T14:18:26.126Z,95296.72
2022-12-18T14:20:56.647Z,95296.56
2022-12-18T14:23:32.902Z,95297.00
2022-12-18T14:26:05.447Z,95291.91
2022-12-18T14:28:32.774Z,95285.16
2022-12-18T14:30:59.350Z,95290.22
2022-12-18T14:33:27.902Z,95278.59
2022-12-18T14:35:54.342Z,95302.66
2022-12-18T14:38:24.585Z,95304.59
2022-12-18T14:40:58.678Z,95297.47
2022-12-18T14:43:25.774Z,95301.13
2022-12-18T14:45:52.685Z,95295.78
2022-12-18T14:48:34.516Z,95309.47
2022-12-18T14:51:03.477Z,95313.28
2022-12-18T14:53:42.201Z,95307.31
2022-12-18T14:56:29.989Z,95308.13
2022-12-18T14:59:18.049Z,95304.50
2022-12-18T15:01:57.977Z,95305.03
2022-12-18T15:04:32.284Z,95293.44
2022-12-18T15:07:20.079Z,95297.59
2022-12-18T15:10:04.724Z,95302.03
2022-12-18T15:12:44.896Z,95314.72
2022-12-18T15:15:40.461Z,95325.69
2022-12-18T15:18:11.306Z,95323.31
2022-12-18T15:20:54.288Z,95320.28
2022-12-18T15:23:39.005Z,95317.91
2022-12-18T15:26:13.904Z,95317.25
2022-12-18T15:28:46.689Z,95311.56
2022-12-18T15:31:13.161Z,95309.97
2022-12-18T15:33:46.981Z,95315.84
2022-12-18T15:36:17.993Z,95315.06
2022-12-18T15:38:49.621Z,95318.56
2022-12-18T15:41:24.200Z,95307.09
2022-12-18T15:43:54.317Z,95314.72
2022-12-18T15:46:26.261Z,95312.81
2022-12-18T15:49:01.797Z,95311.25
2022-12-18T15:51:32.647Z,95308.06
2022-12-18T15:54:01.852Z,95306.47
2022-12-18T15:56:47.104Z,95303.34
2022-12-18T15:59:19.980Z,95320.59
2022-12-18T16:01:48.841Z,95316.31
2022-12-18T16:04:17.669Z,95288.94
2022-12-18T16:07:13.329Z,95310.78
2022-12-18T16:09:30.743Z,95314.91
2022-12-18T16:11:57.194Z,95306.66
2022-12-18T16:14:26.925Z,95310.34
2022-12-18T16:17:02.763Z,95310.78
2022-12-18T16:19:30.428Z,95303.78
2022-12-18T16:21:58.732Z,95308.88
2022-12-18T16:24:28.236Z,95302.53
2022-12-18T16:26:56.531Z,95302.41
2022-12-18T16:29:27.785Z,95314.44
2022-12-18T16:31:54.799Z,95315.41
2022-12-18T16:34:29.598Z,95312.88
2022-12-18T16:37:06.014Z,95305.25
2022-12-18T16:39:34.949Z,95314.44
2022-12-18T16:42:07.418Z,95309.22
2022-12-18T16:44:34.932Z,95316.66
2022-12-18T16:47:03.813Z,95298.25
2022-12-18T16:49:30.799Z,95301.97
2022-12-18T16:51:57.744Z,95301.97
2022-12-18T16:54:24.289Z,95295.81
2022-12-18T16:56:51.847Z,95298.03
2022-12-18T16:59:18.492Z,95284.69
2022-12-18T17:01:45.061Z,95283.41
2022-12-18T17:04:11.864Z,95286.72
2022-12-18T17:06:45.485Z,95284.38
2022-12-18T17:09:15.291Z,95271.38
2022-12-18T17:11:42.249Z,95283.91
2022-12-18T17:14:12.458Z,95284.22
2022-12-18T17:16:39.011Z,95282.69
2022-12-18T17:19:09.753Z,95284.88
2022-12-18T17:21:40.186Z,95279.16
2022-12-18T17:24:07.459Z,95272.19
2022-12-18T17:26:33.923Z,95266.47
2022-12-18T17:29:00.632Z,95278.50
2022-12-18T17:31:30.095Z,95282.63
2022-12-18T17:33:57.850Z,95286.41
2022-12-18T17:36:24.944Z,95285.25
2022-12-18T17:38:55.024Z,95280.66
2022-12-18T17:41:21.787Z,95281.91
2022-12-18T17:43:55.283Z,95281.19
2022-12-18T17:46:22.549Z,95283.41
2022-12-18T17:48:49.044Z,95279.91
2022-12-18T17:51:16.834Z,95290.09
2022-12-18T17:53:44.182Z,95287.53
2022-12-18T17:56:15.661Z,95285.94
2022-12-18T17:58:42.956Z,95301.03
2022-12-18T18:01:12.612Z,95304.38
2022-12-18T18:03:41.760Z,95299.31
2022-12-18T18:06:09.157Z,95297.09
2022-12-18T18:08:36.394Z,95299.31
2022-12-18T18:11:33.593Z,95300.25
2022-12-18T18:14:04.124Z,95300.75
2022-12-18T18:16:34.215Z,95300.31
2022-12-18T18:19:02.954Z,95301.91
2022-12-18T18:21:30.119Z,95303.47
2022-12-18T18:23:59.841Z,95301.25
2022-12-18T18:26:29.160Z,95311.13
2022-12-18T18:28:57.105Z,95307.00
2022-12-18T18:31:23.856Z,95298.94
2022-12-18T18:33:51.261Z,95294.81
2022-12-18T18:36:17.845Z,95290.34
2022-12-18T18:38:48.394Z,95280.38
2022-12-18T18:41:15.782Z,95273.06
2022-12-18T18:43:42.608Z,95273.97
2022-12-18T18:46:12.999Z,95265.41
2022-12-18T18:48:40.237Z,95268.56
2022-12-18T18:51:14.670Z,95269.88
2022-12-18T18:53:49.361Z,95269.75
2022-12-18T18:59:05.275Z,95273.88
2022-12-18T19:01:31.813Z,95276.69
2022-12-18T19:03:58.305Z,95266.19
2022-12-18T19:06:27.569Z,95258.06
2022-12-18T19:08:56.140Z,95258.22
2022-12-18T19:11:44.073Z,95259.97
2022-12-18T19:14:13.557Z,95246.66
2022-12-18T19:16:40.518Z,95245.06
2022-12-18T19:19:07.458Z,95242.19
2022-12-18T19:21:34.908Z,95234.56
2022-12-18T19:24:02.592Z,95231.91
2022-12-18T19:26:29.668Z,95223.50
2022-12-18T19:29:04.058Z,95234.75
2022-12-18T19:31:35.571Z,95230.16
2022-12-18T19:34:07.270Z,95241.31
2022-12-18T19:36:39.149Z,95235.56
2022-12-18T19:39:11.625Z,95232.88
2022-12-18T19:41:39.350Z,95245.41
2022-12-18T19:44:08.266Z,95244.59
2022-12-18T19:46:35.692Z,95255.56
2022-12-18T19:49:02.342Z,95253.03
2022-12-18T19:51:31.067Z,95250.50
2022-12-18T19:54:01.162Z,95246.00
2022-12-18T19:56:31.437Z,95263.47
2022-12-18T19:58:58.285Z,95253.63
2022-12-18T20:01:26.321Z,95259.19
2022-12-18T20:03:54.473Z,95259.38
2022-12-18T20:06:51.842Z,95263.81
2022-12-18T20:09:19.237Z,95258.56
2022-12-18T20:11:47.189Z,95251.75
2022-12-18T20:14:18.760Z,95250.94
2022-12-18T20:16:50.616Z,95255.84
2022-12-18T20:19:17.408Z,95243.94
2022-12-18T20:21:43.939Z,95234.22
2022-12-18T20:24:10.461Z,95231.06
2022-12-18T20:26:36.979Z,95234.56
2022-12-18T20:29:03.486Z,95227.91
2022-12-18T20:31:30.246Z,95238.19
2022-12-18T20:34:00.169Z,95254.22
2022-12-18T20:36:28.176Z,95242.13
2022-12-18T20:38:59.198Z,95245.63
2022-12-18T20:41:28.183Z,95235.44
2022-12-18T20:44:04.699Z,95236.25
2022-12-18T20:46:31.158Z,95234.84
2022-12-18T20:48:57.856Z,95222.19
2022-12-18T20:51:24.389Z,95231.06
2022-12-18T20:53:51.002Z,95231.06
2022-12-18T20:56:21.667Z,95231.06
2022-12-18T20:58:49.546Z,95226.16
2022-12-18T21:01:19.275Z,95218.38
2022-12-18T21:03:47.184Z,95219.13
2022-12-18T21:06:15.999Z,95211.34
2022-12-18T21:08:42.881Z,95207.91
2022-12-18T21:11:32.038Z,95209.38
2022-12-18T21:13:59.034Z,95205.94
2022-12-18T21:16:25.962Z,95207.06
2022-12-18T21:18:52.697Z,95215.84
2022-12-18T21:21:26.181Z,95201.53
2022-12-18T21:23:53.708Z,95206.94
2022-12-18T21:26:22.980Z,95211.53
2022-12-18T21:29:01.013Z,95205.47
2022-12-18T21:31:30.402Z,95203.59
2022-12-18T21:34:00.944Z,95210.06
2022-12-18T21:36:30.008Z,95201.81
2022-12-18T21:38:57.652Z,95202.94
2022-12-18T21:41:44.587Z,95203.66
2022-12-18T21:44:13.381Z,95205.81
2022-12-18T21:46:45.783Z,95189.16
2022-12-18T21:49:17.319Z,95199.34
2022-12-18T21:51:45.023Z,95208.03
2022-12-18T21:54:11.693Z,95206.28
2022-12-18T21:57:04.376Z,95199.47
2022-12-18T21:59:32.458Z,95192.16
2022-12-18T22:02:01.009Z,95185.22
2022-12-18T22:04:27.842Z,95185.56
2022-12-18T22:06:55.265Z,95176.53
2022-12-18T22:09:23.517Z,95186.88
2022-12-18T22:11:51.297Z,95182.94
2022-12-18T22:14:17.848Z,95194.50
2022-12-18T22:16:44.272Z,95213.34
2022-12-18T22:19:12.565Z,95197.31
2022-12-18T22:21:43.326Z,95195.66
2022-12-18T22:24:26.926Z,95206.75
2022-12-18T22:27:01.977Z,95201.47
2022-12-18T22:29:47.033Z,95188.44
2022-12-18T22:32:16.858Z,95198.94
2022-12-18T22:34:49.850Z,95200.69
2022-12-18T22:37:16.285Z,95194.50
2022-12-18T22:39:42.773Z,95191.50
2022-12-18T22:42:09.864Z,95191.25
2022-12-18T22:44:36.269Z,95183.97
2022-12-18T22:47:06.240Z,95194.25
2022-12-18T22:49:34.849Z,95177.41
2022-12-18T22:52:03.350Z,95183.63
2022-12-18T22:54:29.848Z,95186.63
2022-12-18T22:56:57.127Z,95179.59
2022-12-18T22:59:24.022Z,95168.84
2022-12-18T23:01:58.754Z,95170.16
2022-12-18T23:04:31.212Z,95168.72
2022-12-18T23:07:03.949Z,95167.84
2022-12-18T23:09:30.383Z,95166.09
2022-12-18T23:11:57.630Z,95162.16
2022-12-18T23:14:24.081Z,95160.56
2022-12-18T23:16:52.206Z,95155.66
2022-12-18T23:19:19.602Z,95162.31
2022-12-18T23:21:46.306Z,95164.22
2022-12-18T23:24:12.916Z,95168.97
2022-12-18T23:26:39.399Z,95165.91
2022-12-18T23:29:06.257Z,95166.38
2022-12-18T23:31:38.474Z,95166.81
2022-12-18T23:34:06.289Z,95160.88
2022-12-18T23:36:46.188Z,95147.03
2022-12-18T23:39:17.175Z,95148.28
2022-12-18T23:41:56.075Z,95142.75
2022-12-18T23:44:22.513Z,95139.59
2022-12-18T23:46:49.079Z,95143.09
2022-12-18T23:49:15.610Z,95140.19
2022-12-18T23:51:42.044Z,95150.81
2022-12-18T23:54:09.888Z,95151.59
2022-12-18T23:56:36.377Z,95142.41
2022-12-18T23:59:02.968Z,95126.25
